Time;durP1;ratioP1;P1;durP2;ratioP2;P2;SDS_P1;SDS_P2;PMS_P1;PMS_P2;Temp;Humidity;BMP_temperature;BMP_pressure;BME280_temperature;BME280_humidity;BME280_pressure;Samples;Min_cycle;Max_cycle;Signal;HPM_P1;HPM_P2
2022/05/08 00:00:07;;;;;;;17.03;7.27;;;;;;;6.52;88.00;102637.09;4992005;28;20426;-49
2022/05/08 00:02:35;;;;;;;9.63;7.13;;;;;;;6.46;87.05;102645.53;4992050;28;20477;-51
2022/05/08 00:05:04;;;;;;;12.63;7.17;;;;;;;6.41;87.07;102637.13;4992342;28;20434;-46
2022/05/08 00:07:31;;;;;;;7.57;6.93;;;;;;;6.35;86.98;102634.97;4991576;28;20469;-46
2022/05/08 00:09:59;;;;;;;13.47;7.00;;;;;;;6.28;86.27;102641.72;4992133;28;20491;-50
2022/05/08 00:12:28;;;;;;;11.03;7.57;;;;;;;6.23;86.11;102639.44;4991819;28;20441;-52
2022/05/08 00:14:57;;;;;;;7.07;6.37;;;;;;;6.17;85.63;102639.09;4991983;28;20426;-47
2022/05/08 00:17:24;;;;;;;8.93;7.80;;;;;;;6.11;84.97;102643.91;4991377;28;20465;-47
2022/05/08 00:19:53;;;;;;;14.60;8.17;;;;;;;6.08;85.42;102630.06;4992145;28;20438;-47
2022/05/08 00:22:20;;;;;;;13.23;7.70;;;;;;;6.04;85.68;102639.22;4991673;28;20518;-48
2022/05/08 00:25:04;;;;;;;13.33;7.80;;;;;;;5.97;85.46;102633.53;4991913;28;20433;-49
2022/05/08 00:27:32;;;;;;;10.23;6.80;;;;;;;5.92;85.64;102638.38;4991210;28;20549;-50
2022/05/08 00:30:01;;;;;;;7.17;6.50;;;;;;;5.90;86.05;102634.16;4991816;28;20438;-46
2022/05/08 00:32:30;;;;;;;9.83;6.57;;;;;;;5.88;86.35;102634.31;4991927;28;20445;-47
2022/05/08 00:34:58;;;;;;;9.30;7.20;;;;;;;5.85;86.89;102631.00;4991911;28;20432;-48
2022/05/08 00:37:25;;;;;;;10.80;7.80;;;;;;;5.84;87.25;102637.25;4992672;28;20469;-48
2022/05/08 00:39:53;;;;;;;8.63;6.67;;;;;;;5.81;87.21;102638.34;4995198;28;20438;-48
2022/05/08 00:42:20;;;;;;;9.10;7.03;;;;;;;5.81;87.35;102626.91;4995161;28;20481;-46
2022/05/08 00:44:48;;;;;;;13.90;8.63;;;;;;;5.80;87.32;102641.09;4995470;28;20440;-53
2022/05/08 00:47:17;;;;;;;7.83;6.97;;;;;;;5.74;87.02;102630.97;4986334;28;20482;-49
2022/05/08 00:49:44;;;;;;;8.00;7.23;;;;;;;5.70;87.41;102626.91;4991624;28;20430;-49
2022/05/08 00:52:13;;;;;;;11.30;7.90;;;;;;;5.64;87.94;102633.53;4994753;28;20438;-46
2022/05/08 00:54:41;;;;;;;16.33;7.73;;;;;;;5.60;87.78;102632.06;4995272;28;20440;-47
2022/05/08 00:57:10;;;;;;;9.63;7.50;;;;;;;5.57;87.52;102635.81;4994548;28;20474;-49
2022/05/08 00:59:38;;;;;;;15.13;7.63;;;;;;;5.55;87.48;102636.88;4995029;28;20437;-49
2022/05/08 01:02:06;;;;;;;9.20;7.40;;;;;;;5.52;88.20;102637.97;4994712;28;20481;-48
2022/05/08 01:04:35;;;;;;;12.40;8.30;;;;;;;5.50;88.05;102633.72;4994844;28;20488;-52
2022/05/08 01:07:03;;;;;;;9.93;7.47;;;;;;;5.46;87.73;102629.66;4994289;28;20537;-46
2022/05/08 01:09:31;;;;;;;15.13;7.97;;;;;;;5.45;88.09;102630.59;4994934;28;20438;-51
2022/05/08 01:11:58;;;;;;;15.10;8.10;;;;;;;5.44;88.54;102627.09;4994549;28;20442;-48
2022/05/08 01:14:26;;;;;;;11.70;7.20;;;;;;;5.42;88.71;102634.31;4994898;28;20437;-48
2022/05/08 01:16:53;;;;;;;9.17;7.80;;;;;;;5.43;89.61;102636.03;4994186;28;20476;-51
2022/05/08 01:19:21;;;;;;;10.07;7.10;;;;;;;5.43;90.20;102629.88;4994470;28;20430;-48
2022/05/08 01:21:50;;;;;;;11.40;7.00;;;;;;;5.39;90.12;102621.34;4994441;28;20492;-46
2022/05/08 01:24:22;;;;;;;9.07;7.87;;;;;;;5.38;89.82;102618.78;4994653;28;20436;-47
2022/05/08 01:26:49;;;;;;;11.07;7.40;;;;;;;5.36;89.97;102628.66;4993963;28;20470;-47
2022/05/08 01:29:18;;;;;;;12.80;8.10;;;;;;;5.34;90.20;102625.28;4994338;28;20485;-50
2022/05/08 01:31:46;;;;;;;8.23;7.40;;;;;;;5.31;89.79;102633.47;4994087;28;20437;-46
2022/05/08 01:34:13;;;;;;;9.77;7.50;;;;;;;5.28;89.74;102628.41;4994250;28;20444;-47
2022/05/08 01:36:41;;;;;;;17.90;7.53;;;;;;;5.24;89.89;102632.22;4993837;28;21006;-47
2022/05/08 01:39:11;;;;;;;9.23;7.67;;;;;;;5.19;89.29;102629.09;4994296;28;20434;-50
2022/05/08 01:41:38;;;;;;;8.67;7.50;;;;;;;5.17;89.96;102631.84;4993915;28;20844;-50
2022/05/08 01:44:06;;;;;;;13.77;7.80;;;;;;;5.16;89.59;102626.69;4994022;28;20434;-48
2022/05/08 01:46:33;;;;;;;19.53;9.80;;;;;;;5.12;90.00;102631.34;4989204;28;20469;-47
2022/05/08 01:49:00;;;;;;;14.17;7.67;;;;;;;5.11;90.12;102642.06;4984979;28;20433;-48
2022/05/08 01:51:28;;;;;;;9.13;7.60;;;;;;;5.09;90.11;102630.75;4993671;28;20954;-52
2022/05/08 01:53:55;;;;;;;13.37;7.50;;;;;;;5.07;90.04;102625.59;4994030;28;20443;-49
2022/05/08 01:56:24;;;;;;;14.47;8.40;;;;;;;5.06;89.98;102634.47;4993456;28;20465;-47
2022/05/08 01:58:52;;;;;;;22.93;9.30;;;;;;;5.02;90.17;102633.00;4993785;28;20436;-49
2022/05/08 02:01:20;;;;;;;18.73;8.03;;;;;;;5.03;90.61;102619.66;4993457;28;20445;-46
2022/05/08 02:03:48;;;;;;;16.93;7.87;;;;;;;5.02;91.24;102622.41;4993567;28;20478;-48
2022/05/08 02:06:16;;;;;;;13.30;8.17;;;;;;;5.00;91.14;102619.91;4993214;28;20468;-47
2022/05/08 02:08:44;;;;;;;9.47;7.50;;;;;;;4.98;91.07;102621.81;4993710;28;20434;-49
2022/05/08 02:11:11;;;;;;;14.33;8.47;;;;;;;4.97;91.22;102632.50;4993389;28;20438;-50
2022/05/08 02:13:40;;;;;;;8.87;7.30;;;;;;;4.96;91.13;102634.28;4993468;28;20433;-49
2022/05/08 02:16:10;;;;;;;8.73;7.93;;;;;;;4.94;91.06;102630.94;4993093;28;20461;-47
2022/05/08 02:18:38;;;;;;;11.63;7.73;;;;;;;4.94;90.97;102628.28;4993427;28;20473;-47
2022/05/08 02:21:06;;;;;;;11.10;8.03;;;;;;;4.92;91.64;102622.28;4993225;28;20468;-48
2022/05/08 02:23:33;;;;;;;9.67;7.40;;;;;;;4.92;91.29;102621.44;4993313;28;20836;-46
2022/05/08 02:26:01;;;;;;;12.17;7.93;;;;;;;4.92;91.66;102626.72;4992642;28;20836;-49
2022/05/08 02:28:29;;;;;;;12.10;7.90;;;;;;;4.91;91.51;102632.97;4993314;28;20517;-45
2022/05/08 02:30:58;;;;;;;15.20;7.63;;;;;;;4.90;91.66;102636.53;4992933;28;20474;-48
2022/05/08 02:33:25;;;;;;;10.80;7.77;;;;;;;4.88;91.35;102630.53;4993283;28;20433;-48
2022/05/08 02:35:53;;;;;;;9.40;7.63;;;;;;;4.86;91.46;102638.59;4992656;28;20456;-48
2022/05/08 02:38:21;;;;;;;13.50;7.90;;;;;;;4.79;91.06;102639.16;4993118;28;20529;-48
2022/05/08 02:40:48;;;;;;;14.70;8.67;;;;;;;4.70;90.70;102643.31;4992787;28;20442;-51
2022/05/08 02:43:18;;;;;;;9.43;7.40;;;;;;;4.63;90.32;102643.88;4993074;28;20484;-48
2022/05/08 02:45:45;;;;;;;13.53;8.90;;;;;;;4.51;90.31;102637.66;4988356;28;20486;-47
2022/05/08 02:48:14;;;;;;;15.03;7.83;;;;;;;4.42;90.46;102641.00;4984726;28;20457;-48
2022/05/08 02:50:42;;;;;;;9.77;8.80;;;;;;;4.34;90.46;102638.06;4992745;28;20422;-49
2022/05/08 02:53:10;;;;;;;8.37;7.57;;;;;;;4.27;90.38;102632.34;4992674;28;20965;-47
2022/05/08 02:58:35;;;;;;;13.63;8.73;;;;;;;4.11;90.56;102639.72;4992767;28;20441;-47
2022/05/08 03:01:05;;;;;;;16.33;10.23;;;;;;;4.06;90.60;102641.81;4992211;28;20445;-46
2022/05/08 03:03:34;;;;;;;9.43;8.60;;;;;;;4.05;91.00;102644.56;4992494;28;20500;-47
2022/05/08 03:06:03;;;;;;;9.00;7.60;;;;;;;4.02;90.64;102644.78;4992324;28;20458;-47
2022/05/08 03:08:30;;;;;;;10.37;9.20;;;;;;;4.00;91.13;102638.78;4992609;28;20946;-48
2022/05/08 03:13:44;;;;;;;11.33;8.73;;;;;;;3.94;91.14;102642.69;4992510;28;20426;-47
2022/05/08 03:16:12;;;;;;;9.33;8.53;;;;;;;3.87;90.76;102642.28;4991935;28;20844;-46
2022/05/08 03:18:42;;;;;;;10.00;8.87;;;;;;;3.83;90.79;102645.22;4992498;28;20924;-46
2022/05/08 03:21:10;;;;;;;9.27;7.47;;;;;;;3.73;90.79;102649.47;4992370;28;20434;-50
2022/05/08 03:23:38;;;;;;;9.63;7.73;;;;;;;3.69;91.30;102654.09;4992421;28;20473;-46
2022/05/08 03:26:07;;;;;;;12.27;7.87;;;;;;;3.69;91.69;102651.47;4991841;28;20488;-47
2022/05/08 03:28:35;;;;;;;9.23;8.13;;;;;;;3.70;91.78;102650.50;4992167;28;20532;-48
2022/05/08 03:31:03;;;;;;;11.37;8.10;;;;;;;3.69;91.63;102647.97;4992273;28;20434;-47
2022/05/08 03:33:32;;;;;;;11.80;9.03;;;;;;;3.71;92.21;102646.91;4992662;28;20430;-50
2022/05/08 03:36:01;;;;;;;14.87;9.20;;;;;;;3.76;91.88;102655.34;4991814;28;20453;-48
2022/05/08 03:38:30;;;;;;;21.93;10.93;;;;;;;3.78;92.39;102653.47;4992280;28;20440;-46
2022/05/08 03:40:57;;;;;;;14.87;10.23;;;;;;;3.83;93.03;102650.50;4992066;28;20445;-50
2022/05/08 03:43:25;;;;;;;10.07;8.40;;;;;;;3.87;92.73;102655.47;4992123;28;20480;-48
2022/05/08 03:45:53;;;;;;;9.73;7.90;;;;;;;3.96;92.50;102655.78;4987826;28;20477;-46
2022/05/08 03:48:21;;;;;;;10.97;8.70;;;;;;;4.01;92.91;102651.00;4984239;28;20525;-46
2022/05/08 03:50:49;;;;;;;13.40;10.43;;;;;;;4.06;92.62;102654.19;4991923;28;20434;-46
2022/05/08 03:53:18;;;;;;;8.67;7.70;;;;;;;4.17;93.22;102647.19;4992157;28;20434;-48
2022/05/08 03:55:46;;;;;;;18.50;8.40;;;;;;;4.25;92.93;102641.34;4991583;28;20454;-48
2022/05/08 03:58:13;;;;;;;14.63;8.90;;;;;;;4.32;92.88;102647.91;4992452;28;20433;-46
2022/05/08 04:00:41;;;;;;;9.70;8.57;;;;;;;4.39;92.56;102649.16;4992082;28;20433;-48
2022/05/08 04:03:09;;;;;;;14.60;8.40;;;;;;;4.50;93.00;102645.72;4992139;28;20480;-50
2022/05/08 04:05:36;;;;;;;15.03;8.27;;;;;;;4.66;93.08;102641.84;4992056;28;20438;-49
2022/05/08 04:08:04;;;;;;;12.07;7.87;;;;;;;4.80;93.13;102646.97;4991483;28;20466;-48
2022/05/08 04:10:39;;;;;;;10.03;8.80;;;;;;;4.93;92.95;102645.09;4992123;28;20438;-51
2022/05/08 04:13:07;;;;;;;14.73;7.90;;;;;;;5.10;92.75;102643.00;4994516;28;20434;-48
2022/05/08 04:18:20;;;;;;;14.87;8.50;;;;;;;5.44;92.91;102642.97;4995680;28;20787;-51
2022/05/08 04:20:47;;;;;;;15.27;8.60;;;;;;;5.62;93.00;102646.00;4995394;28;20811;-50
2022/05/08 04:25:58;;;;;;;12.33;8.57;;;;;;;6.26;93.84;102633.06;4952243;28;20461;-52
2022/05/08 04:28:26;;;;;;;9.30;8.00;;;;;;;6.77;94.15;102631.50;4995645;28;20469;-51
2022/05/08 04:30:54;;;;;;;10.17;7.63;;;;;;;7.47;94.61;102639.69;4995343;28;20437;-51
2022/05/08 04:33:22;;;;;;;16.63;7.40;;;;;;;8.19;94.09;102637.81;4995361;28;20438;-48
2022/05/08 04:35:50;;;;;;;9.50;6.70;;;;;;;8.85;91.75;102633.63;4995039;28;20492;-46
2022/05/08 04:38:18;;;;;;;19.70;8.00;;;;;;;9.48;81.66;102638.47;4995474;28;20468;-52
2022/05/08 04:40:45;;;;;;;9.93;7.27;;;;;;;10.25;77.99;102631.91;4995208;28;20430;-50
2022/05/08 04:43:14;;;;;;;9.27;6.00;;;;;;;11.04;75.87;102632.06;4995125;28;20928;-51
2022/05/08 04:45:42;;;;;;;17.20;6.97;;;;;;;11.51;69.79;102638.78;5018841;23;20504;-48
2022/05/08 04:48:10;;;;;;;16.17;5.87;;;;;;;12.18;69.85;102634.50;4994902;28;20442;-45
2022/05/08 04:50:38;;;;;;;21.17;7.20;;;;;;;12.79;69.53;102636.81;4995156;28;20811;-48
2022/05/08 04:53:06;;;;;;;9.83;7.03;;;;;;;13.29;62.99;102645.59;4995051;28;20442;-48
2022/05/08 04:55:34;;;;;;;16.07;6.40;;;;;;;13.47;59.44;102632.00;4993801;28;20454;-42
2022/05/08 04:58:01;;;;;;;15.13;8.03;;;;;;;13.60;58.41;102635.00;4994168;28;20472;-44
2022/05/08 05:00:30;;;;;;;10.80;6.87;;;;;;;13.13;57.14;102640.25;4994588;28;20430;-45
2022/05/08 05:02:58;;;;;;;15.97;8.10;;;;;;;13.48;57.53;102635.53;4994864;28;20442;-47
2022/05/08 05:05:26;;;;;;;13.43;8.10;;;;;;;13.66;57.42;102650.41;4994726;28;20484;-47
2022/05/08 05:07:53;;;;;;;13.27;7.00;;;;;;;13.80;55.21;102652.38;4994497;28;20470;-46
2022/05/08 05:10:22;;;;;;;14.47;7.00;;;;;;;13.88;54.11;102650.72;4994043;28;20799;-44
2022/05/08 05:12:50;;;;;;;17.50;7.60;;;;;;;14.48;56.07;102651.00;4994568;28;20449;-46
2022/05/08 05:15:18;;;;;;;14.90;9.00;;;;;;;14.58;52.11;102657.81;4994774;28;20436;-46
2022/05/08 05:17:49;;;;;;;16.70;6.80;;;;;;;15.04;54.83;102660.53;4993954;28;20466;-46
2022/05/08 05:20:17;;;;;;;11.93;7.57;;;;;;;15.55;53.16;102648.19;4994334;28;20871;-46
2022/05/08 05:22:44;;;;;;;12.70;6.67;;;;;;;15.70;51.08;102652.59;4994163;28;20811;-45
2022/05/08 05:25:12;;;;;;;13.30;6.27;;;;;;;15.45;48.75;102660.03;4993490;28;20476;-45
2022/05/08 05:27:40;;;;;;;15.43;7.80;;;;;;;14.96;50.05;102658.75;4993927;28;21017;-46
2022/05/08 05:30:09;;;;;;;12.00;7.00;;;;;;;15.04;50.32;102665.91;4994225;28;20950;-45
2022/05/08 05:32:38;;;;;;;11.10;7.37;;;;;;;14.68;50.70;102668.34;4994416;28;20448;-43
2022/05/08 05:35:07;;;;;;;15.30;7.53;;;;;;;14.73;50.44;102661.41;4994182;28;20437;-45
2022/05/08 05:37:35;;;;;;;10.83;6.27;;;;;;;14.87;50.63;102662.53;4965774;28;20474;-47
2022/05/08 05:40:03;;;;;;;13.50;6.93;;;;;;;14.75;51.41;102670.16;4954629;29;20925;-44
2022/05/08 05:42:38;;;;;;;13.90;6.30;;;;;;;15.01;50.06;102663.59;4955131;29;20574;-50
2022/05/08 05:45:07;;;;;;;8.77;5.97;;;;;;;14.83;50.18;102672.78;4955018;29;20501;-43
2022/05/08 05:47:53;;;;;;;15.57;6.40;;;;;;;15.16;48.36;102667.16;4976832;28;21006;-47
2022/05/08 05:50:24;;;;;;;17.90;6.93;;;;;;;15.44;50.47;102665.59;4974061;28;20785;-45
2022/05/08 05:52:53;;;;;;;14.00;6.80;;;;;;;15.85;48.75;102683.03;4974537;28;20434;-45
2022/05/08 05:55:21;;;;;;;13.90;6.87;;;;;;;15.96;48.67;102677.19;4973671;28;20430;-46
2022/05/08 05:57:49;;;;;;;11.73;5.70;;;;;;;15.74;48.57;102683.47;4973618;28;20461;-47
2022/05/08 06:00:20;;;;;;;13.13;6.17;;;;;;;15.73;47.44;102679.13;4974008;28;20442;-45
2022/05/08 06:02:48;;;;;;;7.77;6.47;;;;;;;15.18;47.94;102671.34;4974197;28;20442;-46
2022/05/08 06:05:15;;;;;;;12.33;6.20;;;;;;;15.60;47.50;102686.97;4973961;28;20486;-43
2022/05/08 06:07:45;;;;;;;10.37;5.67;;;;;;;15.59;46.86;102685.28;4973276;28;20542;-48
2022/05/08 06:10:14;;;;;;;10.03;5.60;;;;;;;15.46;47.37;102688.59;4973995;28;20449;-50
2022/05/08 06:12:41;;;;;;;11.87;5.20;;;;;;;15.16;47.97;102700.25;4974111;28;20983;-44
2022/05/08 06:15:13;;;;;;;15.17;6.20;;;;;;;15.36;49.17;102697.91;4973947;28;20435;-48
2022/05/08 06:17:40;;;;;;;9.57;5.23;;;;;;;15.34;49.02;102698.09;4973568;28;20489;-49
2022/05/08 06:20:09;;;;;;;15.60;5.20;;;;;;;15.32;48.45;102704.69;4973864;28;20434;-48
2022/05/08 06:22:37;;;;;;;11.77;6.57;;;;;;;15.60;47.45;102697.72;4973352;28;20888;-43
2022/05/08 06:25:07;;;;;;;9.70;6.13;;;;;;;16.06;47.39;102698.44;4973816;28;20867;-51
2022/05/08 06:27:34;;;;;;;14.03;5.93;;;;;;;16.35;46.11;102709.19;4973198;28;20474;-46
2022/05/08 06:30:02;;;;;;;12.97;6.40;;;;;;;15.99;48.21;102702.88;4973863;28;20434;-45
2022/05/08 06:32:31;;;;;;;11.40;6.30;;;;;;;16.12;47.66;102696.88;4973680;28;20439;-48
2022/05/08 06:35:18;;;;;;;10.83;6.23;;;;;;;15.62;48.10;102702.94;4973196;28;20434;-45
2022/05/08 06:37:46;;;;;;;9.37;6.10;;;;;;;15.59;47.48;102700.63;4972745;28;20485;-45
2022/05/08 06:40:15;;;;;;;9.90;5.23;;;;;;;15.37;48.30;102697.75;4973316;28;20434;-45
2022/05/08 06:42:43;;;;;;;14.77;5.50;;;;;;;15.87;48.18;102705.19;4973641;28;20442;-44
2022/05/08 06:45:11;;;;;;;10.50;6.60;;;;;;;16.02;48.29;102697.97;4973554;28;20474;-44
2022/05/08 06:47:38;;;;;;;14.80;5.70;;;;;;;16.36;47.17;102705.50;4981107;28;20470;-49
2022/05/08 06:50:08;;;;;;;10.83;6.10;;;;;;;16.62;46.38;102696.94;4992252;28;20434;-45
2022/05/08 06:52:36;;;;;;;16.13;6.27;;;;;;;16.36;47.01;102702.81;4992297;28;20448;-51
2022/05/08 06:55:04;;;;;;;10.07;5.50;;;;;;;16.58;47.69;102707.25;4993059;28;20430;-50
2022/05/08 06:57:33;;;;;;;12.57;6.43;;;;;;;16.17;46.34;102697.13;4992234;28;20469;-45
2022/05/08 07:02:47;;;;;;;9.67;5.93;;;;;;;17.14;45.21;102696.69;4992523;28;20838;-44
2022/05/08 07:05:14;;;;;;;13.43;5.43;;;;;;;16.96;45.38;102702.53;4975189;28;20484;-48
2022/05/08 07:07:42;;;;;;;11.50;6.10;;;;;;;16.66;45.21;102711.72;4973359;28;20550;-46
2022/05/08 07:10:10;;;;;;;15.10;6.00;;;;;;;16.90;45.49;102708.69;4991713;28;20437;-47
2022/05/08 07:12:39;;;;;;;10.00;5.40;;;;;;;17.15;43.45;102706.44;4991758;28;20449;-49
2022/05/08 07:15:08;;;;;;;15.27;5.97;;;;;;;17.01;44.59;102701.94;4990121;28;20436;-42
2022/05/08 07:17:35;;;;;;;8.37;5.17;;;;;;;16.43;45.81;102717.16;4971582;28;20470;-45
2022/05/08 07:20:04;;;;;;;11.33;6.10;;;;;;;16.10;47.35;102717.75;4991948;28;20441;-44
2022/05/08 07:22:35;;;;;;;10.50;5.90;;;;;;;16.02;47.13;102719.50;4979555;28;20442;-49
2022/05/08 07:25:02;;;;;;;14.30;6.73;;;;;;;16.18;44.18;102712.28;4971674;28;20474;-46
2022/05/08 07:27:31;;;;;;;10.00;5.13;;;;;;;16.24;45.97;102717.75;4970657;28;20474;-45
2022/05/08 07:30:04;;;;;;;11.40;4.83;;;;;;;15.96;45.44;102719.41;4991562;28;20950;-48
2022/05/08 07:32:32;;;;;;;9.57;5.20;;;;;;;16.27;45.71;102727.31;4990591;28;20429;-50
2022/05/08 07:37:45;;;;;;;9.93;4.60;;;;;;;16.46;45.34;102721.34;4971495;28;20539;-49
2022/05/08 07:40:13;;;;;;;11.53;5.23;;;;;;;15.94;45.52;102724.97;4971624;28;20434;-48
2022/05/08 07:42:41;;;;;;;10.77;5.60;;;;;;;15.35;48.30;102731.19;4971976;28;20437;-46
2022/05/08 07:45:11;;;;;;;11.00;4.70;;;;;;;15.38;46.72;102715.53;4971341;28;20489;-47
2022/05/08 07:47:39;;;;;;;7.17;4.47;;;;;;;15.41;47.30;102714.34;4978077;28;20474;-49
2022/05/08 07:50:09;;;;;;;11.37;5.60;;;;;;;15.40;47.79;102724.25;4995286;28;20452;-48
2022/05/08 07:52:38;;;;;;;13.00;5.80;;;;;;;15.43;48.06;102729.28;4977303;28;20450;-48
2022/05/08 07:55:06;;;;;;;6.73;3.90;;;;;;;15.48;46.17;102731.44;4986207;28;20468;-47
2022/05/08 07:57:34;;;;;;;10.30;5.00;;;;;;;14.70;47.27;102736.97;4993960;28;20469;-51
2022/05/08 08:00:03;;;;;;;8.37;4.47;;;;;;;14.76;48.28;102735.41;4994818;28;20464;-47
2022/05/08 08:02:33;;;;;;;6.07;4.33;;;;;;;14.46;51.23;102742.44;4994365;28;20445;-50
2022/05/08 08:05:00;;;;;;;6.03;4.33;;;;;;;13.83;49.36;102745.06;4983266;28;20434;-46
2022/05/08 08:07:28;;;;;;;11.70;5.13;;;;;;;13.83;50.06;102743.22;4993763;28;20470;-48
2022/05/08 08:09:56;;;;;;;11.83;3.97;;;;;;;13.88;50.64;102740.06;4975317;28;20435;-52
2022/05/08 08:12:24;;;;;;;6.00;4.13;;;;;;;13.90;49.17;102740.72;4975770;28;20446;-43
2022/05/08 08:14:52;;;;;;;7.17;4.43;;;;;;;14.44;50.74;102741.78;4975564;28;20812;-47
2022/05/08 08:17:19;;;;;;;5.13;3.90;;;;;;;14.25;48.36;102744.81;4982177;28;20816;-45
2022/05/08 08:19:52;;;;;;;6.30;3.90;;;;;;;14.27;48.39;102751.72;4994845;28;20434;-45
2022/05/08 08:22:20;;;;;;;5.97;4.43;;;;;;;14.50;47.29;102751.81;4994678;28;20460;-49
2022/05/08 08:24:48;;;;;;;8.10;4.07;;;;;;;14.94;46.47;102750.25;4994459;28;20859;-50
2022/05/08 08:27:16;;;;;;;10.00;5.50;;;;;;;14.82;49.42;102751.66;4993628;28;20473;-48
2022/05/08 08:29:44;;;;;;;11.83;4.63;;;;;;;15.16;48.28;102742.41;4977600;28;20438;-47
2022/05/08 08:32:12;;;;;;;10.40;4.97;;;;;;;15.41;45.71;102746.63;4966442;28;20451;-42
2022/05/08 08:34:40;;;;;;;10.50;5.03;;;;;;;15.78;46.21;102743.13;4991833;28;20498;-44
2022/05/08 08:37:09;;;;;;;10.03;4.43;;;;;;;15.33;45.52;102744.81;4977862;28;20815;-49
2022/05/08 08:39:37;;;;;;;7.47;4.27;;;;;;;15.20;45.54;102751.81;4974593;28;20449;-48
2022/05/08 08:42:27;;;;;;;8.77;4.83;;;;;;;15.32;46.02;102753.06;4975125;28;20446;-43
2022/05/08 08:47:51;;;;;;;6.63;4.30;;;;;;;14.78;45.94;102758.41;4977757;28;20466;-51
2022/05/08 08:50:20;;;;;;;7.90;4.70;;;;;;;14.77;46.80;102756.75;4987133;28;20468;-50
2022/05/08 08:52:49;;;;;;;8.60;4.30;;;;;;;14.74;45.84;102756.25;4991153;28;20982;-47
2022/05/08 08:55:19;;;;;;;9.13;4.60;;;;;;;14.72;46.71;102761.81;4974473;28;20438;-46
2022/05/08 08:57:47;;;;;;;8.63;4.20;;;;;;;15.02;46.15;102762.00;4972612;28;20466;-48
2022/05/08 09:00:16;;;;;;;9.03;4.20;;;;;;;14.91;46.43;102764.06;4974953;28;20435;-44
2022/05/08 09:02:44;;;;;;;9.63;4.67;;;;;;;15.32;46.33;102767.31;4976896;28;20434;-46
2022/05/08 09:05:15;;;;;;;5.43;3.97;;;;;;;15.39;46.62;102759.38;4974818;28;20537;-47
2022/05/08 09:07:44;;;;;;;4.80;3.03;;;;;;;15.36;42.25;102760.56;4992844;28;20476;-46
2022/05/08 09:10:16;;;;;;;6.27;4.10;;;;;;;15.43;42.46;102755.31;4994024;28;20434;-49
2022/05/08 09:12:45;;;;;;;6.87;4.27;;;;;;;15.52;44.74;102765.03;4994083;28;20803;-46
2022/05/08 09:15:24;;;;;;;6.93;4.40;;;;;;;15.62;43.75;102764.81;4993395;28;20426;-46
2022/05/08 09:17:55;;;;;;;5.43;3.40;;;;;;;15.32;43.66;102755.75;4992520;28;20478;-48
2022/05/08 09:20:31;;;;;;;7.87;4.13;;;;;;;15.33;43.91;102758.25;4993981;28;20440;-46
2022/05/08 09:23:17;;;;;;;5.20;3.87;;;;;;;15.25;45.71;102765.53;4993689;28;20807;-46
2022/05/08 09:25:54;;;;;;;5.90;3.40;;;;;;;15.28;43.98;102757.97;4978007;28;20461;-51
2022/05/08 09:28:34;;;;;;;7.93;3.80;;;;;;;15.34;43.72;102757.25;4990503;28;20434;-48
2022/05/08 09:31:04;;;;;;;9.20;3.20;;;;;;;15.59;42.35;102765.16;4992502;28;20453;-48
2022/05/08 09:33:35;;;;;;;7.30;4.10;;;;;;;15.73;44.53;102754.44;4992613;28;20430;-49
2022/05/08 09:36:04;;;;;;;6.87;3.87;;;;;;;16.05;42.72;102756.81;4975300;28;20455;-47
2022/05/08 09:38:43;;;;;;;8.40;3.73;;;;;;;15.75;44.04;102756.94;4973369;28;20454;-47
2022/05/08 09:41:13;;;;;;;7.60;4.10;;;;;;;15.66;43.43;102768.78;4974033;28;20944;-45
2022/05/08 09:43:41;;;;;;;6.63;3.60;;;;;;;15.74;41.31;102761.47;4973677;28;20949;-46
2022/05/08 09:46:10;;;;;;;7.43;3.87;;;;;;;15.99;41.52;102765.63;4971485;28;20552;-47
2022/05/08 09:48:37;;;;;;;4.90;3.60;;;;;;;16.41;42.73;102759.63;4984315;28;20461;-48
2022/05/08 09:51:07;;;;;;;6.73;4.10;;;;;;;16.87;40.18;102754.03;4993313;28;20441;-49
2022/05/08 09:53:38;;;;;;;5.67;4.07;;;;;;;16.31;40.03;102756.34;4983602;28;20434;-48
2022/05/08 09:56:07;;;;;;;4.40;3.70;;;;;;;16.53;38.85;102752.75;4972526;28;20457;-47
2022/05/08 09:58:38;;;;;;;7.00;3.80;;;;;;;16.76;38.78;102755.34;4972724;28;20427;-47
2022/05/08 10:01:07;;;;;;;5.53;3.30;;;;;;;16.61;38.06;102759.91;4972369;28;20438;-47
2022/05/08 10:03:35;;;;;;;5.70;3.90;;;;;;;16.31;38.86;102761.75;4973191;28;20434;-48
2022/05/08 10:06:04;;;;;;;6.40;3.67;;;;;;;16.42;38.37;102755.06;4972400;28;21024;-48
2022/05/08 10:08:34;;;;;;;4.13;3.23;;;;;;;16.90;38.90;102750.97;4972747;28;20446;-45
2022/05/08 10:13:55;;;;;;;5.10;3.33;;;;;;;16.99;39.11;102757.91;4973310;28;20813;-47
2022/05/08 10:16:51;;;;;;;3.57;2.90;;;;;;;17.53;35.89;102752.88;4963000;28;20471;-43
2022/05/08 10:19:47;;;;;;;7.33;3.27;;;;;;;17.94;35.22;102753.03;4972913;28;20446;-48
2022/05/08 10:22:15;;;;;;;7.50;3.03;;;;;;;17.76;35.32;102749.97;4973350;28;20442;-47
2022/05/08 10:24:47;;;;;;;11.10;4.20;;;;;;;17.54;36.64;102760.78;4991580;28;20510;-45
2022/05/08 10:27:16;;;;;;;7.40;3.50;;;;;;;17.00;36.70;102757.69;4991371;28;20991;-47
2022/05/08 10:30:32;;;;;;;4.57;3.80;;;;;;;16.92;36.92;102760.50;4992296;28;20438;-49
2022/05/08 10:33:07;;;;;;;6.53;3.70;;;;;;;17.45;37.95;102756.50;5088346;27;20508;-43
2022/05/08 10:35:35;;;;;;;6.40;3.43;;;;;;;17.85;37.45;102756.88;5071782;28;20447;-45
2022/05/08 10:38:22;;;;;;;4.33;3.60;;;;;;;17.70;35.15;102754.28;5025901;28;20471;-46
2022/05/08 10:40:50;;;;;;;6.00;4.00;;;;;;;17.85;36.36;102756.88;5028266;28;20440;-45
2022/05/08 10:43:30;;;;;;;9.30;3.67;;;;;;;18.18;36.09;102758.81;5028145;28;20436;-43
2022/05/08 10:46:20;;;;;;;7.00;3.93;;;;;;;17.64;34.98;102757.75;5026940;28;20981;-49
2022/05/08 10:48:50;;;;;;;4.37;3.33;;;;;;;17.50;37.68;102755.94;5024266;28;20506;-45
2022/05/08 10:51:17;;;;;;;3.87;3.20;;;;;;;17.81;37.71;102756.44;5029475;28;20479;-44
2022/05/08 10:53:47;;;;;;;3.97;3.57;;;;;;;17.68;36.20;102757.16;5027283;28;20961;-44
2022/05/08 10:56:15;;;;;;;6.23;3.90;;;;;;;17.93;37.05;102749.47;5026517;28;20456;-45
2022/05/08 10:58:53;;;;;;;7.57;3.73;;;;;;;18.11;36.18;102752.50;5026966;28;20455;-48
2022/05/08 11:01:21;;;;;;;3.80;3.50;;;;;;;18.44;35.65;102754.56;5027280;28;20853;-49
2022/05/08 11:03:50;;;;;;;5.00;3.30;;;;;;;18.67;35.34;102752.44;5027015;28;20481;-47
2022/05/08 11:06:22;;;;;;;5.33;3.80;;;;;;;18.35;33.76;102750.38;5026698;28;20822;-45
2022/05/08 11:08:50;;;;;;;5.20;3.40;;;;;;;18.15;34.25;102753.81;5026989;28;20798;-46
2022/05/08 11:11:19;;;;;;;5.80;2.80;;;;;;;18.33;35.69;102755.16;5027956;28;20446;-44
2022/05/08 11:13:49;;;;;;;7.60;2.77;;;;;;;18.43;35.26;102744.81;5027261;28;20956;-46
2022/05/08 11:16:36;;;;;;;5.77;4.07;;;;;;;18.20;34.16;102745.09;5026648;28;20775;-46
2022/05/08 11:19:07;;;;;;;5.73;3.20;;;;;;;17.74;35.47;102744.75;5027109;28;20425;-47
2022/05/08 11:21:35;;;;;;;4.20;3.33;;;;;;;18.05;35.92;102742.50;5027412;28;20436;-46
2022/05/08 11:24:04;;;;;;;4.40;3.23;;;;;;;18.42;35.31;102748.56;5027407;28;20436;-48
2022/05/08 11:26:33;;;;;;;3.97;3.60;;;;;;;18.60;34.59;102752.41;5026658;28;20837;-47
2022/05/08 11:29:01;;;;;;;3.93;3.37;;;;;;;18.85;34.12;102744.59;5026908;28;20862;-48
2022/05/08 11:31:29;;;;;;;4.90;4.00;;;;;;;18.90;33.70;102741.31;5027317;28;20845;-46
2022/05/08 11:36:45;;;;;;;6.10;3.90;;;;;;;18.74;34.65;102746.03;5025989;28;20818;-48
2022/05/08 11:39:14;;;;;;;5.17;2.93;;;;;;;19.00;33.91;102750.69;5026816;28;20456;-46
2022/05/08 11:41:44;;;;;;;4.90;3.40;;;;;;;18.90;33.79;102739.44;5028051;28;20432;-47
2022/05/08 11:44:23;;;;;;;4.73;3.07;;;;;;;18.75;33.37;102753.13;5020408;28;21154;-44
2022/05/08 11:46:54;;;;;;;5.37;3.00;;;;;;;18.98;31.82;102755.47;5008984;28;20476;-48
2022/05/08 11:49:23;;;;;;;3.87;3.20;;;;;;;19.03;31.26;102744.03;5000952;28;20808;-52
2022/05/08 11:51:54;;;;;;;6.50;3.90;;;;;;;19.13;31.56;102736.38;4993659;28;20477;-46
2022/05/08 11:54:30;;;;;;;3.10;2.90;;;;;;;18.80;31.00;102736.28;5013058;28;20440;-44
2022/05/08 11:57:12;;;;;;;4.33;2.97;;;;;;;18.27;32.29;102739.75;5000219;28;20471;-47
2022/05/08 11:59:40;;;;;;;7.60;3.60;;;;;;;18.49;32.58;102739.47;5013742;28;20429;-47